Time;durP1;ratioP1;P1;durP2;ratioP2;P2;SDS_P1;SDS_P2;PMS_P1;PMS_P2;Temp;Humidity;BMP_temperature;BMP_pressure;BME280_temperature;BME280_humidity;BME280_pressure;Samples;Min_cycle;Max_cycle;Signal;HPM_P1;HPM_P2
2022/04/25 00:03:57;;;;;;;5.05;1.33;;;;;;;;;;10430850;28;20508;-59
2022/04/25 00:08:58;;;;;;;2.38;0.90;;;;;;;;;;10430742;28;20056;-59
2022/04/25 00:13:58;;;;;;;3.70;0.95;;;;;;;;;;10431311;28;20029;-59
2022/04/25 00:19:00;;;;;;;2.85;0.93;;;;;;;;;;10434754;28;20032;-58
2022/04/25 00:24:00;;;;;;;0.95;0.95;;;;;;;;;;10427257;28;20033;-59
2022/04/25 00:29:01;;;;;;;1.10;0.95;;;;;;;;;;10439630;28;20041;-65
2022/04/25 00:34:02;;;;;;;1.17;0.90;;;;;;;;;;10431687;28;20041;-66
2022/04/25 00:39:02;;;;;;;3.47;1.00;;;;;;;;;;10429755;28;20043;-66
2022/04/25 00:44:03;;;;;;;3.28;0.95;;;;;;;;;;10427958;28;20037;-66
2022/04/25 00:49:04;;;;;;;0.85;0.85;;;;;;;;;;10427929;28;20067;-67
2022/04/25 00:54:05;;;;;;;0.88;0.82;;;;;;;;;;10419041;28;20039;-66
2022/04/25 00:59:06;;;;;;;0.95;0.88;;;;;;;;;;10431250;28;20041;-66
2022/04/25 01:04:07;;;;;;;0.73;0.73;;;;;;;;;;10426436;28;20037;-67
2022/04/25 01:09:07;;;;;;;1.65;0.98;;;;;;;;;;10429213;28;20033;-66
2022/04/25 01:14:17;;;;;;;1.17;1.05;;;;;;;;;;10439623;28;20025;-59
2022/04/25 01:19:17;;;;;;;0.90;0.90;;;;;;;;;;10440171;28;20055;-66
2022/04/25 01:29:37;;;;;;;4.15;1.05;;;;;;;;;;10439726;28;20424;-64
2022/04/25 01:34:38;;;;;;;0.88;0.88;;;;;;;;;;10445277;28;20029;-65
2022/04/25 01:39:43;;;;;;;2.97;0.90;;;;;;;;;;10442044;28;20036;-67
2022/04/25 01:44:44;;;;;;;1.13;1.05;;;;;;;;;;10446613;28;20442;-62
2022/04/25 01:49:45;;;;;;;1.20;0.80;;;;;;;;;;10439465;28;20021;-67
2022/04/25 01:54:47;;;;;;;1.13;0.85;;;;;;;;;;10423384;28;20036;-66
2022/04/25 01:59:47;;;;;;;1.63;1.05;;;;;;;;;;10441432;28;20053;-67
2022/04/25 02:04:49;;;;;;;0.98;0.80;;;;;;;;;;10444831;28;20079;-60
2022/04/25 02:09:49;;;;;;;1.00;0.77;;;;;;;;;;10430903;28;20106;-66
2022/04/25 02:14:50;;;;;;;0.63;0.63;;;;;;;;;;10436314;28;20159;-67
2022/04/25 02:19:50;;;;;;;0.90;0.90;;;;;;;;;;10445274;28;20514;-66
2022/04/25 02:24:51;;;;;;;0.80;0.80;;;;;;;;;;10427420;28;20032;-58
2022/04/25 02:29:57;;;;;;;0.95;0.88;;;;;;;;;;10443968;28;20091;-59
2022/04/25 02:34:59;;;;;;;0.98;0.95;;;;;;;;;;10440519;28;20024;-60
2022/04/25 02:39:59;;;;;;;1.17;0.80;;;;;;;;;;10427674;28;20041;-59
2022/04/25 02:45:00;;;;;;;3.13;0.82;;;;;;;;;;10444334;28;20083;-59
2022/04/25 02:50:00;;;;;;;0.88;0.88;;;;;;;;;;10439581;28;20033;-64
2022/04/25 02:55:01;;;;;;;0.70;0.70;;;;;;;;;;10438695;28;20055;-59
2022/04/25 03:00:03;;;;;;;0.63;0.63;;;;;;;;;;10428692;28;20120;-62
2022/04/25 03:05:05;;;;;;;0.80;0.80;;;;;;;;;;10439736;28;20423;-64
2022/04/25 03:10:06;;;;;;;2.10;1.02;;;;;;;;;;10431883;28;20488;-66
2022/04/25 03:15:07;;;;;;;1.08;1.00;;;;;;;;;;10435357;28;20037;-66
2022/04/25 03:20:09;;;;;;;0.80;0.80;;;;;;;;;;10438100;28;20083;-65
2022/04/25 03:25:09;;;;;;;2.30;1.00;;;;;;;;;;10427018;28;20080;-66
2022/04/25 03:30:10;;;;;;;0.90;0.90;;;;;;;;;;10434549;28;20503;-66
2022/04/25 03:35:15;;;;;;;0.68;0.68;;;;;;;;;;10440511;28;20489;-65
2022/04/25 03:40:17;;;;;;;0.93;0.93;;;;;;;;;;10431869;28;20034;-65
2022/04/25 03:45:18;;;;;;;0.80;0.80;;;;;;;;;;10432859;28;20025;-65
2022/04/25 03:50:19;;;;;;;1.60;0.90;;;;;;;;;;10428129;28;20032;-66
2022/04/25 04:00:39;;;;;;;1.15;0.80;;;;;;;;;;10433874;28;20048;-66
2022/04/25 04:05:41;;;;;;;0.90;0.90;;;;;;;;;;10424318;28;20037;-66
2022/04/25 04:10:42;;;;;;;1.13;1.00;;;;;;;;;;10430055;28;20657;-66
2022/04/25 04:15:43;;;;;;;1.00;0.93;;;;;;;;;;10440108;28;20033;-64
2022/04/25 04:20:43;;;;;;;1.15;0.95;;;;;;;;;;10430864;28;20039;-64
2022/04/25 04:25:44;;;;;;;2.67;0.90;;;;;;;;;;10440927;28;20054;-66
2022/04/25 04:30:46;;;;;;;0.90;0.90;;;;;;;;;;10435228;28;20036;-66
2022/04/25 04:41:06;;;;;;;1.20;0.88;;;;;;;;;;10429734;28;20025;-61
2022/04/25 04:46:06;;;;;;;2.65;1.27;;;;;;;;;;10432755;28;20033;-63
2022/04/25 04:51:08;;;;;;;1.13;0.70;;;;;;;;;;10441518;28;20029;-64
2022/04/25 04:56:09;;;;;;;0.90;0.90;;;;;;;;;;10433806;28;20134;-60
2022/04/25 05:01:10;;;;;;;0.82;0.82;;;;;;;;;;10438506;28;20071;-66
2022/04/25 05:06:12;;;;;;;0.80;0.80;;;;;;;;;;10434271;28;20029;-65
2022/04/25 05:11:12;;;;;;;1.30;1.02;;;;;;;;;;10431345;28;20045;-65
2022/04/25 05:16:13;;;;;;;1.85;0.73;;;;;;;;;;10439109;28;20033;-64
2022/04/25 05:21:13;;;;;;;0.70;0.70;;;;;;;;;;10439886;28;20041;-65
2022/04/25 05:26:14;;;;;;;0.70;0.70;;;;;;;;;;10437761;28;20034;-65
2022/04/25 05:31:15;;;;;;;4.22;0.80;;;;;;;;;;10434757;28;20041;-63
2022/04/25 05:36:15;;;;;;;0.73;0.73;;;;;;;;;;10435981;28;20102;-65
2022/04/25 05:41:16;;;;;;;0.70;0.70;;;;;;;;;;10439456;28;20473;-63
2022/04/25 05:46:20;;;;;;;4.32;1.30;;;;;;;;;;10441270;28;20029;-64
2022/04/25 05:56:39;;;;;;;;;;;;;;;;;;10430715;28;20045;-67
2022/04/25 06:01:40;;;;;;;0.77;0.70;;;;;;;;;;10437349;28;19932;-67
2022/04/25 06:06:40;;;;;;;1.05;0.90;;;;;;;;;;10438195;28;20459;-66
2022/04/25 06:11:42;;;;;;;1.75;1.10;;;;;;;;;;10432822;28;20041;-66
2022/04/25 06:16:43;;;;;;;0.80;0.80;;;;;;;;;;10432675;28;20063;-66
2022/04/25 06:21:43;;;;;;;0.90;0.90;;;;;;;;;;10432130;28;20116;-67
2022/04/25 06:26:45;;;;;;;0.80;0.80;;;;;;;;;;10442173;28;20033;-66
2022/04/25 06:31:52;;;;;;;1.35;0.90;;;;;;;;;;10427051;28;20582;-66
2022/04/25 06:36:53;;;;;;;3.30;1.00;;;;;;;;;;10421822;28;20030;-66
2022/04/25 06:41:54;;;;;;;1.23;1.13;;;;;;;;;;10429472;28;20030;-66
2022/04/25 06:46:54;;;;;;;1.05;0.90;;;;;;;;;;10436445;28;20037;-66
2022/04/25 06:51:58;;;;;;;0.88;0.88;;;;;;;;;;10434442;28;20033;-62
2022/04/25 06:56:58;;;;;;;4.03;1.20;;;;;;;;;;10431005;28;20033;-66
2022/04/25 07:02:00;;;;;;;0.90;0.90;;;;;;;;;;10443407;28;20224;-67
2022/04/25 07:07:01;;;;;;;1.17;0.95;;;;;;;;;;10431164;28;20060;-66
2022/04/25 07:12:02;;;;;;;1.20;1.10;;;;;;;;;;10437685;28;20033;-57
2022/04/25 07:17:05;;;;;;;1.35;1.25;;;;;;;;;;10436582;28;20040;-59
2022/04/25 07:32:47;;;;;;;7.47;1.55;;;;;;;;;;10440939;28;20036;-58
2022/04/25 07:37:48;;;;;;;1.42;1.13;;;;;;;;;;10430943;28;20025;-58
2022/04/25 07:42:49;;;;;;;2.55;1.60;;;;;;;;;;10443725;28;20039;-59
2022/04/25 07:47:49;;;;;;;5.75;2.00;;;;;;;;;;10430371;28;20042;-59
2022/04/25 07:52:51;;;;;;;5.00;2.00;;;;;;;;;;10439790;28;20021;-58
2022/04/25 07:57:52;;;;;;;4.63;2.38;;;;;;;;;;10432242;28;20088;-58
2022/04/25 08:02:52;;;;;;;7.50;2.53;;;;;;;;;;10420986;28;20265;-59
2022/04/25 08:07:53;;;;;;;7.78;2.20;;;;;;;;;;10422501;28;20378;-59
2022/04/25 08:18:14;;;;;;;17.60;3.40;;;;;;;;;;10421833;28;20033;-59
2022/04/25 08:23:14;;;;;;;7.55;3.03;;;;;;;;;;10413884;28;20037;-59
2022/04/25 08:28:15;;;;;;;7.75;3.00;;;;;;;;;;10424688;28;20029;-59
2022/04/25 08:33:16;;;;;;;11.63;2.80;;;;;;;;;;10440488;28;20432;-58
2022/04/25 08:38:16;;;;;;;15.13;3.30;;;;;;;;;;10431134;28;20063;-58
2022/04/25 08:43:18;;;;;;;11.18;2.88;;;;;;;;;;10442508;28;20432;-60
2022/04/25 08:48:21;;;;;;;12.70;2.65;;;;;;;;;;10412505;28;20022;-59
2022/04/25 08:53:23;;;;;;;13.13;2.92;;;;;;;;;;10424093;28;20037;-58
2022/04/25 08:58:24;;;;;;;6.78;2.60;;;;;;;;;;10428766;28;20052;-58
2022/04/25 09:03:24;;;;;;;9.15;2.70;;;;;;;;;;10409884;28;20033;-58
2022/04/25 09:08:25;;;;;;;10.57;3.03;;;;;;;;;;10442018;28;20112;-58
2022/04/25 09:13:26;;;;;;;9.82;3.10;;;;;;;;;;10445917;28;20412;-58
2022/04/25 09:18:26;;;;;;;7.32;2.63;;;;;;;;;;10441046;28;20503;-57
2022/04/25 09:23:27;;;;;;;6.40;2.45;;;;;;;;;;10420949;28;20041;-58
2022/04/25 09:28:28;;;;;;;5.20;2.67;;;;;;;;;;10431803;28;20037;-56
2022/04/25 09:33:29;;;;;;;5.15;2.30;;;;;;;;;;10433681;28;20079;-55
2022/04/25 09:38:36;;;;;;;16.17;2.90;;;;;;;;;;10432190;28;20024;-56
2022/04/25 09:43:40;;;;;;;3.97;2.03;;;;;;;;;;10440716;28;20040;-57
2022/04/25 09:49:03;;;;;;;6.07;2.90;;;;;;;;;;10443198;28;20036;-56
2022/04/25 09:54:04;;;;;;;6.68;2.47;;;;;;;;;;10447932;28;20108;-58
2022/04/25 09:59:07;;;;;;;11.57;2.88;;;;;;;;;;10436760;28;20049;-57
2022/04/25 10:04:31;;;;;;;3.10;2.20;;;;;;;;;;10437860;28;20041;-65
2022/04/25 10:09:34;;;;;;;4.57;2.53;;;;;;;;;;10438123;28;20125;-58
2022/04/25 10:14:37;;;;;;;10.82;2.60;;;;;;;;;;10438977;28;20044;-57
2022/04/25 10:19:38;;;;;;;3.35;2.38;;;;;;;;;;10437665;28;20036;-62
2022/04/25 10:24:39;;;;;;;5.60;3.90;;;;;;;;;;10442430;28;20029;-61
2022/04/25 10:29:49;;;;;;;9.93;4.25;;;;;;;;;;10444785;28;20124;-59
2022/04/25 10:35:02;;;;;;;9.23;5.18;;;;;;;;;;10418661;28;20030;-63
2022/04/25 10:40:14;;;;;;;9.73;5.50;;;;;;;;;;10434450;28;20041;-62
2022/04/25 10:45:15;;;;;;;6.80;5.00;;;;;;;;;;10432422;28;20195;-66
2022/04/25 10:50:15;;;;;;;8.02;5.80;;;;;;;;;;10439217;28;20041;-63
2022/04/25 10:55:33;;;;;;;7.75;5.22;;;;;;;;;;10445486;28;20039;-62
2022/04/25 11:00:37;;;;;;;9.38;5.15;;;;;;;;;;10426566;28;20099;-53
2022/04/25 11:05:48;;;;;;;5.40;4.50;;;;;;;;;;10433080;28;20033;-49
2022/04/25 11:10:57;;;;;;;4.80;3.63;;;;;;;;;;10437050;28;20087;-57
2022/04/25 11:16:16;;;;;;;5.25;3.88;;;;;;;;;;10444470;28;20029;-57
2022/04/25 11:21:16;;;;;;;;;;;;;;;;;;10427307;28;20041;-50
2022/04/25 11:26:23;;;;;;;6.95;3.33;;;;;;;;;;10435419;28;19999;-59
2022/04/25 11:31:31;;;;;;;5.25;3.30;;;;;;;;;;10442216;28;20037;-53
2022/04/25 11:36:40;;;;;;;6.20;3.45;;;;;;;;;;10417418;28;20039;-49
2022/04/25 11:41:44;;;;;;;3.88;3.10;;;;;;;;;;10432452;28;20047;-51
2022/04/25 11:46:47;;;;;;;4.53;2.67;;;;;;;;;;10434291;28;20052;-55
2022/04/25 11:51:50;;;;;;;4.82;3.05;;;;;;;;;;10430937;28;20380;-59
2022/04/25 11:56:51;;;;;;;6.40;3.13;;;;;;;;;;10422139;28;20390;-59
2022/04/25 12:01:52;;;;;;;7.03;2.95;;;;;;;;;;10438380;28;20040;-63
2022/04/25 12:07:05;;;;;;;5.00;2.70;;;;;;;;;;10431334;28;20082;-59
2022/04/25 12:17:42;;;;;;;9.07;2.47;;;;;;;;;;10430376;28;20044;-59
2022/04/25 12:22:55;;;;;;;3.75;2.75;;;;;;;;;;10438246;28;20036;-62
2022/04/25 12:28:18;;;;;;;10.57;2.70;;;;;;;;;;10413385;28;20123;-59
2022/04/25 12:33:38;;;;;;;5.20;2.63;;;;;;;;;;10425261;28;20036;-58
2022/04/25 12:39:11;;;;;;;4.63;2.47;;;;;;;;;;10436792;28;20033;-58
2022/04/25 12:44:12;;;;;;;3.80;1.90;;;;;;;;;;10432638;28;20100;-57
2022/04/25 12:49:20;;;;;;;9.05;2.40;;;;;;;;;;10429473;28;20387;-58
2022/04/25 12:54:32;;;;;;;6.83;2.30;;;;;;;;;;10433011;28;20087;-58
2022/04/25 12:59:33;;;;;;;5.07;2.35;;;;;;;;;;10430684;28;20454;-59
2022/04/25 13:04:58;;;;;;;7.70;2.38;;;;;;;;;;10413681;28;20079;-60
2022/04/25 13:10:02;;;;;;;3.47;2.50;;;;;;;;;;10416935;28;20044;-55
2022/04/25 13:15:06;;;;;;;5.85;2.45;;;;;;;;;;10434519;28;20029;-56
2022/04/25 13:20:14;;;;;;;9.75;3.15;;;;;;;;;;10436345;28;20650;-53
2022/04/25 13:25:18;;;;;;;;;;;;;;;;;;10433161;28;20106;-55
2022/04/25 13:30:20;;;;;;;8.00;3.28;;;;;;;;;;10437703;28;20365;-55
2022/04/25 13:35:24;;;;;;;23.25;3.55;;;;;;;;;;10425452;28;20036;-59
2022/04/25 13:40:24;;;;;;;9.25;2.63;;;;;;;;;;10443946;28;20037;-54
2022/04/25 13:45:25;;;;;;;16.67;3.42;;;;;;;;;;10439672;28;20021;-55
2022/04/25 13:50:28;;;;;;;5.85;3.22;;;;;;;;;;10435054;28;20086;-57
2022/04/25 13:55:33;;;;;;;5.18;2.90;;;;;;;;;;10441359;28;20477;-56
2022/04/25 14:00:34;;;;;;;8.95;3.03;;;;;;;;;;10426566;28;20519;-56
2022/04/25 14:05:42;;;;;;;7.15;2.95;;;;;;;;;;10434102;28;20128;-56
2022/04/25 14:10:45;;;;;;;6.97;2.92;;;;;;;;;;10433436;28;20630;-56
2022/04/25 14:15:46;;;;;;;13.23;4.00;;;;;;;;;;10424012;28;20520;-55
2022/04/25 14:20:47;;;;;;;8.00;3.53;;;;;;;;;;10436479;28;20035;-56
2022/04/25 14:25:48;;;;;;;7.20;2.95;;;;;;;;;;10433368;28;20030;-56
2022/04/25 14:30:48;;;;;;;8.82;3.13;;;;;;;;;;10436750;28;20028;-56
2022/04/25 14:35:49;;;;;;;5.03;2.72;;;;;;;;;;10440173;28;20120;-56
2022/04/25 14:40:54;;;;;;;7.55;3.10;;;;;;;;;;10435481;28;20044;-55
2022/04/25 14:45:55;;;;;;;5.93;2.80;;;;;;;;;;10443342;28;20029;-55
2022/04/25 14:56:15;;;;;;;;;;;;;;;;;;10441886;28;20041;-54
2022/04/25 15:01:16;;;;;;;9.40;2.40;;;;;;;;;;10430866;28;20322;-56
2022/04/25 15:06:17;;;;;;;6.15;2.38;;;;;;;;;;10445950;28;20082;-58
2022/04/25 15:11:17;;;;;;;7.47;2.50;;;;;;;;;;10436312;28;20063;-58
2022/04/25 15:16:18;;;;;;;8.27;2.90;;;;;;;;;;10418701;28;20469;-58
2022/04/25 15:21:19;;;;;;;7.30;3.42;;;;;;;;;;10419195;28;20525;-58
2022/04/25 15:26:19;;;;;;;6.53;2.58;;;;;;;;;;10428330;28;20035;-58
2022/04/25 15:31:20;;;;;;;5.60;2.42;;;;;;;;;;10434565;28;20574;-58
2022/04/25 15:36:20;;;;;;;12.75;3.00;;;;;;;;;;10433241;28;20048;-58
2022/04/25 15:41:21;;;;;;;6.63;3.05;;;;;;;;;;10434214;28;20045;-59
2022/04/25 15:46:21;;;;;;;9.43;2.63;;;;;;;;;;10433891;28;20052;-59
2022/04/25 15:51:22;;;;;;;9.30;3.03;;;;;;;;;;10416650;28;20044;-61
2022/04/25 16:01:41;;;;;;;13.02;3.70;;;;;;;;;;10437730;28;20611;-58
2022/04/25 16:06:42;;;;;;;8.57;3.50;;;;;;;;;;10431906;28;20037;-58
2022/04/25 16:11:43;;;;;;;14.05;4.25;;;;;;;;;;10439467;28;20071;-59
2022/04/25 16:16:44;;;;;;;18.27;4.35;;;;;;;;;;10453093;28;20465;-59
2022/04/25 16:21:44;;;;;;;9.48;4.03;;;;;;;;;;10445552;28;20042;-58
2022/04/25 16:26:45;;;;;;;10.55;3.35;;;;;;;;;;10428700;28;20033;-58
2022/04/25 16:31:46;;;;;;;17.60;4.25;;;;;;;;;;10438961;28;20036;-59
2022/04/25 16:36:47;;;;;;;13.20;4.20;;;;;;;;;;10424697;28;22050;-63
2022/04/25 16:41:49;;;;;;;14.23;4.07;;;;;;;;;;10424144;28;20595;-58
2022/04/25 16:46:49;;;;;;;10.60;4.50;;;;;;;;;;10450748;28;20033;-58
2022/04/25 16:51:53;;;;;;;17.02;4.47;;;;;;;;;;10441726;28;20032;-63
2022/04/25 16:56:54;;;;;;;5.28;3.40;;;;;;;;;;10438685;28;20102;-61
2022/04/25 17:01:55;;;;;;;10.18;4.00;;;;;;;;;;10450124;28;20613;-59
2022/04/25 17:06:56;;;;;;;9.73;3.90;;;;;;;;;;10436265;28;20102;-60
2022/04/25 17:11:59;;;;;;;10.35;3.45;;;;;;;;;;10444566;28;20045;-58
2022/04/25 17:17:00;;;;;;;12.35;3.47;;;;;;;;;;10480733;28;20397;-58
2022/04/25 17:22:00;;;;;;;6.70;3.10;;;;;;;;;;10454827;28;20049;-58
2022/04/25 17:27:01;;;;;;;8.88;3.28;;;;;;;;;;10451599;28;20083;-57
2022/04/25 17:37:40;;;;;;;15.18;3.50;;;;;;;;;;10461670;28;20427;-57
